sensor_id;sensor_type;location;lat;lon;timestamp;P1;durP1;ratioP1;P2;durP2;ratioP2
12758;SDS011;20944;47.048;15.390;2023-08-12T00:01:26;5.45;;;1.10;;
12758;SDS011;20944;47.048;15.390;2023-08-12T00:03:54;1.10;;;1.00;;
12758;SDS011;20944;47.048;15.390;2023-08-12T00:06:22;2.28;;;1.08;;
12758;SDS011;20944;47.048;15.390;2023-08-12T00:08:50;1.35;;;0.82;;
12758;SDS011;20944;47.048;15.390;2023-08-12T00:11:19;1.48;;;0.85;;
12758;SDS011;20944;47.048;15.390;2023-08-12T00:13:47;1.35;;;1.00;;
12758;SDS011;20944;47.048;15.390;2023-08-12T00:16:15;1.30;;;1.20;;
12758;SDS011;20944;47.048;15.390;2023-08-12T00:18:45;1.58;;;1.02;;
12758;SDS011;20944;47.048;15.390;2023-08-12T00:21:14;3.03;;;1.10;;
12758;SDS011;20944;47.048;15.390;2023-08-12T00:23:42;0.68;;;0.68;;
12758;SDS011;20944;47.048;15.390;2023-08-12T00:26:10;1.17;;;1.08;;
12758;SDS011;20944;47.048;15.390;2023-08-12T00:28:39;1.40;;;1.00;;
12758;SDS011;20944;47.048;15.390;2023-08-12T00:31:07;1.73;;;0.90;;
12758;SDS011;20944;47.048;15.390;2023-08-12T00:33:35;1.35;;;0.93;;
12758;SDS011;20944;47.048;15.390;2023-08-12T00:36:05;3.25;;;1.00;;
12758;SDS011;20944;47.048;15.390;2023-08-12T00:38:33;1.42;;;1.25;;
12758;SDS011;20944;47.048;15.390;2023-08-12T00:41:03;1.23;;;1.13;;
12758;SDS011;20944;47.048;15.390;2023-08-12T00:43:31;1.52;;;1.10;;
12758;SDS011;20944;47.048;15.390;2023-08-12T00:45:59;1.20;;;1.10;;
12758;SDS011;20944;47.048;15.390;2023-08-12T00:48:28;1.60;;;1.40;;
12758;SDS011;20944;47.048;15.390;2023-08-12T00:50:56;1.30;;;1.20;;
12758;SDS011;20944;47.048;15.390;2023-08-12T00:53:26;2.05;;;1.45;;
12758;SDS011;20944;47.048;15.390;2023-08-12T00:55:55;2.58;;;1.30;;
12758;SDS011;20944;47.048;15.390;2023-08-12T00:58:23;1.50;;;1.30;;
12758;SDS011;20944;47.048;15.390;2023-08-12T01:00:51;1.30;;;1.20;;
12758;SDS011;20944;47.048;15.390;2023-08-12T01:03:19;2.58;;;1.27;;
12758;SDS011;20944;47.048;15.390;2023-08-12T01:05:48;1.27;;;1.15;;
12758;SDS011;20944;47.048;15.390;2023-08-12T01:08:17;0.90;;;0.88;;
12758;SDS011;20944;47.048;15.390;2023-08-12T01:10:49;1.20;;;1.10;;
12758;SDS011;20944;47.048;15.390;2023-08-12T01:13:26;1.48;;;1.05;;
12758;SDS011;20944;47.048;15.390;2023-08-12T01:16:00;2.38;;;1.33;;
12758;SDS011;20944;47.048;15.390;2023-08-12T01:18:33;2.45;;;1.17;;
12758;SDS011;20944;47.048;15.390;2023-08-12T01:21:02;1.30;;;1.20;;
12758;SDS011;20944;47.048;15.390;2023-08-12T01:23:34;1.42;;;1.20;;
12758;SDS011;20944;47.048;15.390;2023-08-12T01:26:03;1.00;;;0.90;;
12758;SDS011;20944;47.048;15.390;2023-08-12T01:28:31;1.42;;;1.33;;
12758;SDS011;20944;47.048;15.390;2023-08-12T01:31:01;1.13;;;1.02;;
12758;SDS011;20944;47.048;15.390;2023-08-12T01:33:38;1.20;;;1.05;;
12758;SDS011;20944;47.048;15.390;2023-08-12T01:36:11;1.25;;;1.08;;
12758;SDS011;20944;47.048;15.390;2023-08-12T01:38:44;1.25;;;1.15;;
12758;SDS011;20944;47.048;15.390;2023-08-12T01:41:14;1.30;;;1.20;;
12758;SDS011;20944;47.048;15.390;2023-08-12T01:43:44;1.30;;;1.20;;
12758;SDS011;20944;47.048;15.390;2023-08-12T01:46:13;1.05;;;1.05;;
12758;SDS011;20944;47.048;15.390;2023-08-12T01:48:41;1.70;;;1.60;;
12758;SDS011;20944;47.048;15.390;2023-08-12T01:51:09;1.52;;;1.20;;
12758;SDS011;20944;47.048;15.390;2023-08-12T01:53:38;1.58;;;1.35;;
12758;SDS011;20944;47.048;15.390;2023-08-12T01:56:07;1.50;;;1.40;;
12758;SDS011;20944;47.048;15.390;2023-08-12T01:58:35;1.20;;;1.10;;
12758;SDS011;20944;47.048;15.390;2023-08-12T02:01:04;1.27;;;1.10;;
12758;SDS011;20944;47.048;15.390;2023-08-12T02:03:32;1.55;;;1.20;;
12758;SDS011;20944;47.048;15.390;2023-08-12T02:06:00;3.58;;;1.50;;
12758;SDS011;20944;47.048;15.390;2023-08-12T02:08:28;1.13;;;1.02;;
12758;SDS011;20944;47.048;15.390;2023-08-12T02:10:57;1.23;;;1.00;;
12758;SDS011;20944;47.048;15.390;2023-08-12T02:13:27;1.10;;;1.10;;
12758;SDS011;20944;47.048;15.390;2023-08-12T02:15:55;1.45;;;1.35;;
12758;SDS011;20944;47.048;15.390;2023-08-12T02:18:23;1.60;;;1.48;;
12758;SDS011;20944;47.048;15.390;2023-08-12T02:20:51;1.15;;;0.75;;
12758;SDS011;20944;47.048;15.390;2023-08-12T02:23:20;1.30;;;1.20;;
12758;SDS011;20944;47.048;15.390;2023-08-12T02:25:48;1.80;;;1.33;;
12758;SDS011;20944;47.048;15.390;2023-08-12T02:28:16;1.30;;;1.03;;
12758;SDS011;20944;47.048;15.390;2023-08-12T02:30:46;1.50;;;0.98;;
12758;SDS011;20944;47.048;15.390;2023-08-12T02:33:14;3.10;;;1.17;;
12758;SDS011;20944;47.048;15.390;2023-08-12T02:35:42;1.43;;;1.33;;
12758;SDS011;20944;47.048;15.390;2023-08-12T02:38:11;1.42;;;1.10;;
12758;SDS011;20944;47.048;15.390;2023-08-12T02:40:39;1.17;;;1.07;;
12758;SDS011;20944;47.048;15.390;2023-08-12T02:43:08;3.60;;;1.48;;
12758;SDS011;20944;47.048;15.390;2023-08-12T02:45:38;2.13;;;1.10;;
12758;SDS011;20944;47.048;15.390;2023-08-12T02:48:08;2.87;;;1.07;;
12758;SDS011;20944;47.048;15.390;2023-08-12T02:50:37;1.70;;;1.10;;
12758;SDS011;20944;47.048;15.390;2023-08-12T02:53:05;1.87;;;1.30;;
12758;SDS011;20944;47.048;15.390;2023-08-12T02:55:34;1.13;;;1.13;;
12758;SDS011;20944;47.048;15.390;2023-08-12T02:58:04;1.30;;;1.20;;
12758;SDS011;20944;47.048;15.390;2023-08-12T03:00:32;1.33;;;1.23;;
12758;SDS011;20944;47.048;15.390;2023-08-12T03:03:00;1.27;;;1.27;;
12758;SDS011;20944;47.048;15.390;2023-08-12T03:05:30;1.30;;;1.17;;
12758;SDS011;20944;47.048;15.390;2023-08-12T03:07:59;1.65;;;1.48;;
12758;SDS011;20944;47.048;15.390;2023-08-12T03:10:30;0.97;;;0.80;;
12758;SDS011;20944;47.048;15.390;2023-08-12T03:12:58;1.20;;;1.10;;
12758;SDS011;20944;47.048;15.390;2023-08-12T03:15:26;1.37;;;1.00;;
12758;SDS011;20944;47.048;15.390;2023-08-12T03:17:55;2.00;;;1.17;;
12758;SDS011;20944;47.048;15.390;2023-08-12T03:20:24;1.47;;;1.37;;
12758;SDS011;20944;47.048;15.390;2023-08-12T03:22:53;1.30;;;1.20;;
12758;SDS011;20944;47.048;15.390;2023-08-12T03:25:21;1.23;;;1.13;;
12758;SDS011;20944;47.048;15.390;2023-08-12T03:27:50;1.15;;;0.90;;
12758;SDS011;20944;47.048;15.390;2023-08-12T03:30:18;1.40;;;1.10;;
12758;SDS011;20944;47.048;15.390;2023-08-12T03:32:46;1.70;;;1.40;;
12758;SDS011;20944;47.048;15.390;2023-08-12T03:35:15;4.27;;;1.57;;
12758;SDS011;20944;47.048;15.390;2023-08-12T03:37:45;1.67;;;1.43;;
12758;SDS011;20944;47.048;15.390;2023-08-12T03:40:15;2.40;;;1.60;;
12758;SDS011;20944;47.048;15.390;2023-08-12T03:42:43;2.60;;;1.27;;
12758;SDS011;20944;47.048;15.390;2023-08-12T03:45:11;1.20;;;1.20;;
12758;SDS011;20944;47.048;15.390;2023-08-12T03:47:40;1.77;;;1.67;;
12758;SDS011;20944;47.048;15.390;2023-08-12T03:50:08;2.50;;;1.80;;
12758;SDS011;20944;47.048;15.390;2023-08-12T03:52:37;1.47;;;1.37;;
12758;SDS011;20944;47.048;15.390;2023-08-12T03:55:06;1.97;;;1.47;;
12758;SDS011;20944;47.048;15.390;2023-08-12T03:57:36;1.73;;;1.33;;
12758;SDS011;20944;47.048;15.390;2023-08-12T04:00:05;3.50;;;1.40;;
12758;SDS011;20944;47.048;15.390;2023-08-12T04:02:35;2.25;;;1.70;;
12758;SDS011;20944;47.048;15.390;2023-08-12T04:05:03;2.83;;;1.57;;
12758;SDS011;20944;47.048;15.390;2023-08-12T04:07:32;1.63;;;1.50;;
12758;SDS011;20944;47.048;15.390;2023-08-12T04:10:00;2.60;;;1.50;;
12758;SDS011;20944;47.048;15.390;2023-08-12T04:12:28;1.73;;;1.60;;
12758;SDS011;20944;47.048;15.390;2023-08-12T04:14:58;1.90;;;1.67;;
12758;SDS011;20944;47.048;15.390;2023-08-12T04:17:29;2.13;;;1.70;;
12758;SDS011;20944;47.048;15.390;2023-08-12T04:19:58;3.10;;;1.35;;
12758;SDS011;20944;47.048;15.390;2023-08-12T04:22:26;1.60;;;1.33;;
12758;SDS011;20944;47.048;15.390;2023-08-12T04:24:55;5.63;;;1.60;;
12758;SDS011;20944;47.048;15.390;2023-08-12T04:27:23;1.53;;;1.43;;
12758;SDS011;20944;47.048;15.390;2023-08-12T04:29:52;1.60;;;1.50;;
12758;SDS011;20944;47.048;15.390;2023-08-12T04:32:21;1.87;;;1.47;;
12758;SDS011;20944;47.048;15.390;2023-08-12T04:34:50;1.93;;;1.27;;
12758;SDS011;20944;47.048;15.390;2023-08-12T04:37:18;1.70;;;1.60;;
12758;SDS011;20944;47.048;15.390;2023-08-12T04:39:46;1.48;;;1.38;;
12758;SDS011;20944;47.048;15.390;2023-08-12T04:42:14;1.43;;;1.37;;
12758;SDS011;20944;47.048;15.390;2023-08-12T04:44:42;2.20;;;1.67;;
12758;SDS011;20944;47.048;15.390;2023-08-12T04:47:11;1.50;;;1.35;;
12758;SDS011;20944;47.048;15.390;2023-08-12T04:49:41;1.52;;;1.10;;
12758;SDS011;20944;47.048;15.390;2023-08-12T04:52:09;1.70;;;1.60;;
12758;SDS011;20944;47.048;15.390;2023-08-12T04:54:38;1.85;;;1.70;;
12758;SDS011;20944;47.048;15.390;2023-08-12T04:57:06;1.40;;;1.30;;
12758;SDS011;20944;47.048;15.390;2023-08-12T04:59:34;2.30;;;1.60;;
12758;SDS011;20944;47.048;15.390;2023-08-12T05:02:03;1.60;;;1.42;;
12758;SDS011;20944;47.048;15.390;2023-08-12T05:04:31;3.17;;;1.52;;
12758;SDS011;20944;47.048;15.390;2023-08-12T05:07:01;2.83;;;1.60;;
12758;SDS011;20944;47.048;15.390;2023-08-12T05:09:30;1.80;;;1.70;;
12758;SDS011;20944;47.048;15.390;2023-08-12T05:11:58;2.17;;;1.42;;
12758;SDS011;20944;47.048;15.390;2023-08-12T05:14:26;2.17;;;1.95;;
12758;SDS011;20944;47.048;15.390;2023-08-12T05:16:55;2.25;;;1.80;;
12758;SDS011;20944;47.048;15.390;2023-08-12T05:19:23;5.97;;;2.15;;
12758;SDS011;20944;47.048;15.390;2023-08-12T05:21:51;1.40;;;1.33;;
12758;SDS011;20944;47.048;15.390;2023-08-12T05:24:21;3.63;;;2.20;;
12758;SDS011;20944;47.048;15.390;2023-08-12T05:26:49;1.65;;;1.55;;
12758;SDS011;20944;47.048;15.390;2023-08-12T05:29:17;2.60;;;1.85;;
12758;SDS011;20944;47.048;15.390;2023-08-12T05:31:46;3.20;;;1.95;;
12758;SDS011;20944;47.048;15.390;2023-08-12T05:34:14;2.58;;;1.77;;
12758;SDS011;20944;47.048;15.390;2023-08-12T05:36:42;1.77;;;1.63;;
12758;SDS011;20944;47.048;15.390;2023-08-12T05:39:11;1.98;;;1.40;;
12758;SDS011;20944;47.048;15.390;2023-08-12T05:41:40;1.85;;;1.67;;
12758;SDS011;20944;47.048;15.390;2023-08-12T05:44:09;3.63;;;1.65;;
12758;SDS011;20944;47.048;15.390;2023-08-12T05:46:37;2.40;;;2.08;;
12758;SDS011;20944;47.048;15.390;2023-08-12T05:49:05;1.50;;;1.40;;
12758;SDS011;20944;47.048;15.390;2023-08-12T05:51:34;2.38;;;2.17;;
12758;SDS011;20944;47.048;15.390;2023-08-12T05:54:02;2.15;;;1.90;;
12758;SDS011;20944;47.048;15.390;2023-08-12T05:56:31;1.77;;;1.67;;
12758;SDS011;20944;47.048;15.390;2023-08-12T05:59:00;3.63;;;1.55;;
12758;SDS011;20944;47.048;15.390;2023-08-12T06:01:29;3.58;;;2.15;;
12758;SDS011;20944;47.048;15.390;2023-08-12T06:03:57;2.25;;;2.08;;
12758;SDS011;20944;47.048;15.390;2023-08-12T06:06:25;4.35;;;1.75;;
12758;SDS011;20944;47.048;15.390;2023-08-12T06:08:54;2.15;;;1.95;;
12758;SDS011;20944;47.048;15.390;2023-08-12T06:11:22;3.80;;;2.22;;
12758;SDS011;20944;47.048;15.390;2023-08-12T06:13:50;1.98;;;1.85;;
12758;SDS011;20944;47.048;15.390;2023-08-12T06:16:20;3.63;;;1.55;;
12758;SDS011;20944;47.048;15.390;2023-08-12T06:18:48;3.13;;;2.40;;
12758;SDS011;20944;47.048;15.390;2023-08-12T06:21:16;3.90;;;2.03;;
12758;SDS011;20944;47.048;15.390;2023-08-12T06:23:45;2.15;;;2.00;;
12758;SDS011;20944;47.048;15.390;2023-08-12T06:26:13;2.00;;;1.90;;
12758;SDS011;20944;47.048;15.390;2023-08-12T06:28:41;2.13;;;1.92;;
12758;SDS011;20944;47.048;15.390;2023-08-12T06:31:10;2.28;;;2.08;;
12758;SDS011;20944;47.048;15.390;2023-08-12T06:33:40;1.70;;;1.60;;
12758;SDS011;20944;47.048;15.390;2023-08-12T06:36:08;1.75;;;1.65;;
12758;SDS011;20944;47.048;15.390;2023-08-12T06:38:37;1.60;;;1.50;;
12758;SDS011;20944;47.048;15.390;2023-08-12T06:41:05;1.98;;;1.80;;
12758;SDS011;20944;47.048;15.390;2023-08-12T06:43:33;2.42;;;2.22;;
12758;SDS011;20944;47.048;15.390;2023-08-12T06:46:02;2.70;;;2.10;;
12758;SDS011;20944;47.048;15.390;2023-08-12T06:48:30;3.15;;;2.30;;
12758;SDS011;20944;47.048;15.390;2023-08-12T06:50:59;2.45;;;2.25;;
12758;SDS011;20944;47.048;15.390;2023-08-12T06:53:33;2.55;;;1.77;;
12758;SDS011;20944;47.048;15.390;2023-08-12T06:56:01;3.20;;;2.05;;
12758;SDS011;20944;47.048;15.390;2023-08-12T06:58:30;2.17;;;2.08;;
12758;SDS011;20944;47.048;15.390;2023-08-12T07:00:58;2.08;;;1.98;;
12758;SDS011;20944;47.048;15.390;2023-08-12T07:03:27;2.08;;;1.88;;
12758;SDS011;20944;47.048;15.390;2023-08-12T07:05:55;2.00;;;1.80;;
12758;SDS011;20944;47.048;15.390;2023-08-12T07:08:24;2.28;;;1.88;;
12758;SDS011;20944;47.048;15.390;2023-08-12T07:10:53;1.67;;;1.58;;
12758;SDS011;20944;47.048;15.390;2023-08-12T07:13:22;1.88;;;1.70;;
12758;SDS011;20944;47.048;15.390;2023-08-12T07:15:50;1.70;;;1.60;;
12758;SDS011;20944;47.048;15.390;2023-08-12T07:18:18;2.80;;;1.70;;
12758;SDS011;20944;47.048;15.390;2023-08-12T07:20:46;1.65;;;1.55;;
12758;SDS011;20944;47.048;15.390;2023-08-12T07:23:14;1.77;;;1.67;;
12758;SDS011;20944;47.048;15.390;2023-08-12T07:25:44;1.60;;;1.50;;
12758;SDS011;20944;47.048;15.390;2023-08-12T07:28:13;1.77;;;1.67;;
12758;SDS011;20944;47.048;15.390;2023-08-12T07:30:42;1.70;;;1.60;;
12758;SDS011;20944;47.048;15.390;2023-08-12T07:33:10;1.30;;;1.30;;
12758;SDS011;20944;47.048;15.390;2023-08-12T07:35:38;1.60;;;1.50;;
12758;SDS011;20944;47.048;15.390;2023-08-12T07:38:07;1.58;;;1.48;;
12758;SDS011;20944;47.048;15.390;2023-08-12T07:40:35;1.75;;;1.65;;
12758;SDS011;20944;47.048;15.390;2023-08-12T07:43:08;1.42;;;1.33;;
12758;SDS011;20944;47.048;15.390;2023-08-12T07:45:37;1.38;;;1.27;;
12758;SDS011;20944;47.048;15.390;2023-08-12T07:48:05;2.13;;;1.80;;
12758;SDS011;20944;47.048;15.390;2023-08-12T07:50:34;1.35;;;1.33;;
12758;SDS011;20944;47.048;15.390;2023-08-12T07:53:02;2.72;;;1.83;;
12758;SDS011;20944;47.048;15.390;2023-08-12T07:55:31;1.63;;;1.52;;
12758;SDS011;20944;47.048;15.390;2023-08-12T07:57:59;2.33;;;1.42;;
12758;SDS011;20944;47.048;15.390;2023-08-12T08:00:29;1.73;;;1.60;;
12758;SDS011;20944;47.048;15.390;2023-08-12T08:02:57;1.88;;;1.77;;
12758;SDS011;20944;47.048;15.390;2023-08-12T08:05:25;1.65;;;1.55;;
12758;SDS011;20944;47.048;15.390;2023-08-12T08:07:54;1.55;;;1.45;;
12758;SDS011;20944;47.048;15.390;2023-08-12T08:10:22;1.48;;;1.38;;
12758;SDS011;20944;47.048;15.390;2023-08-12T08:12:51;1.63;;;1.52;;
12758;SDS011;20944;47.048;15.390;2023-08-12T08:15:19;2.45;;;1.80;;
12758;SDS011;20944;47.048;15.390;2023-08-12T08:17:49;1.42;;;1.38;;
12758;SDS011;20944;47.048;15.390;2023-08-12T08:20:20;1.58;;;1.48;;
12758;SDS011;20944;47.048;15.390;2023-08-12T08:22:49;1.90;;;1.80;;
12758;SDS011;20944;47.048;15.390;2023-08-12T08:25:17;1.90;;;1.42;;
12758;SDS011;20944;47.048;15.390;2023-08-12T08:27:45;1.50;;;1.40;;
12758;SDS011;20944;47.048;15.390;2023-08-12T08:30:13;2.28;;;1.50;;
12758;SDS011;20944;47.048;15.390;2023-08-12T08:32:42;1.77;;;1.67;;
12758;SDS011;20944;47.048;15.390;2023-08-12T08:35:11;1.50;;;1.40;;
12758;SDS011;20944;47.048;15.390;2023-08-12T08:37:40;2.83;;;1.33;;
12758;SDS011;20944;47.048;15.390;2023-08-12T08:40:09;2.08;;;1.80;;
12758;SDS011;20944;47.048;15.390;2023-08-12T08:42:38;2.25;;;1.80;;
12758;SDS011;20944;47.048;15.390;2023-08-12T08:45:10;1.63;;;1.52;;
12758;SDS011;20944;47.048;15.390;2023-08-12T08:47:41;1.58;;;1.27;;
12758;SDS011;20944;47.048;15.390;2023-08-12T08:50:11;1.27;;;1.20;;
12758;SDS011;20944;47.048;15.390;2023-08-12T08:52:40;2.00;;;1.90;;
12758;SDS011;20944;47.048;15.390;2023-08-12T08:55:09;4.18;;;1.52;;
12758;SDS011;20944;47.048;15.390;2023-08-12T08:57:39;1.50;;;1.40;;
12758;SDS011;20944;47.048;15.390;2023-08-12T09:00:14;1.50;;;1.40;;
12758;SDS011;20944;47.048;15.390;2023-08-12T09:02:44;4.88;;;1.40;;
12758;SDS011;20944;47.048;15.390;2023-08-12T09:05:15;1.27;;;1.27;;
12758;SDS011;20944;47.048;15.390;2023-08-12T09:07:44;1.00;;;1.00;;
12758;SDS011;20944;47.048;15.390;2023-08-12T09:10:13;2.33;;;1.10;;
12758;SDS011;20944;47.048;15.390;2023-08-12T09:12:42;1.27;;;1.17;;
12758;SDS011;20944;47.048;15.390;2023-08-12T09:15:10;1.80;;;1.65;;
12758;SDS011;20944;47.048;15.390;2023-08-12T09:17:39;1.33;;;1.30;;
12758;SDS011;20944;47.048;15.390;2023-08-12T09:20:07;1.38;;;1.25;;
12758;SDS011;20944;47.048;15.390;2023-08-12T09:22:40;1.30;;;1.20;;
12758;SDS011;20944;47.048;15.390;2023-08-12T09:25:09;1.55;;;1.48;;
12758;SDS011;20944;47.048;15.390;2023-08-12T09:27:37;1.30;;;1.20;;
12758;SDS011;20944;47.048;15.390;2023-08-12T09:30:06;1.73;;;1.63;;
12758;SDS011;20944;47.048;15.390;2023-08-12T09:32:35;4.00;;;1.70;;
12758;SDS011;20944;47.048;15.390;2023-08-12T09:35:05;1.23;;;1.23;;
12758;SDS011;20944;47.048;15.390;2023-08-12T09:37:44;1.45;;;1.30;;
12758;SDS011;20944;47.048;15.390;2023-08-12T09:40:13;1.65;;;1.30;;
12758;SDS011;20944;47.048;15.390;2023-08-12T09:42:44;1.50;;;1.40;;
12758;SDS011;20944;47.048;15.390;2023-08-12T09:45:13;1.58;;;1.48;;
12758;SDS011;20944;47.048;15.390;2023-08-12T09:47:42;1.70;;;1.60;;
12758;SDS011;20944;47.048;15.390;2023-08-12T09:50:11;1.20;;;1.10;;
12758;SDS011;20944;47.048;15.390;2023-08-12T09:52:40;1.60;;;1.50;;
12758;SDS011;20944;47.048;15.390;2023-08-12T09:55:10;2.28;;;2.08;;
12758;SDS011;20944;47.048;15.390;2023-08-12T09:57:39;1.27;;;1.27;;
12758;SDS011;20944;47.048;15.390;2023-08-12T10:00:10;1.65;;;1.55;;
12758;SDS011;20944;47.048;15.390;2023-08-12T10:02:43;2.10;;;1.80;;
12758;SDS011;20944;47.048;15.390;2023-08-12T10:05:13;1.48;;;1.42;;
12758;SDS011;20944;47.048;15.390;2023-08-12T10:07:46;1.70;;;1.60;;
12758;SDS011;20944;47.048;15.390;2023-08-12T10:10:16;1.65;;;1.55;;
12758;SDS011;20944;47.048;15.390;2023-08-12T10:12:45;1.52;;;1.42;;
12758;SDS011;20944;47.048;15.390;2023-08-12T10:15:15;2.15;;;2.05;;
12758;SDS011;20944;47.048;15.390;2023-08-12T10:17:44;1.98;;;1.80;;
12758;SDS011;20944;47.048;15.390;2023-08-12T10:20:14;3.67;;;2.47;;
12758;SDS011;20944;47.048;15.390;2023-08-12T10:22:47;1.95;;;1.63;;
12758;SDS011;20944;47.048;15.390;2023-08-12T10:25:19;2.03;;;1.92;;
12758;SDS011;20944;47.048;15.390;2023-08-12T10:27:49;1.88;;;1.75;;
12758;SDS011;20944;47.048;15.390;2023-08-12T10:30:20;1.75;;;1.65;;
12758;SDS011;20944;47.048;15.390;2023-08-12T10:32:48;1.92;;;1.52;;
12758;SDS011;20944;47.048;15.390;2023-08-12T10:35:17;2.35;;;1.90;;
12758;SDS011;20944;47.048;15.390;2023-08-12T10:37:48;1.50;;;1.40;;
12758;SDS011;20944;47.048;15.390;2023-08-12T10:40:22;1.85;;;1.55;;
12758;SDS011;20944;47.048;15.390;2023-08-12T10:42:51;1.83;;;1.73;;
12758;SDS011;20944;47.048;15.390;2023-08-12T10:45:19;1.33;;;1.33;;
12758;SDS011;20944;47.048;15.390;2023-08-12T10:47:48;2.97;;;1.48;;
12758;SDS011;20944;47.048;15.390;2023-08-12T10:50:22;1.92;;;1.80;;
12758;SDS011;20944;47.048;15.390;2023-08-12T10:52:53;2.97;;;1.60;;
12758;SDS011;20944;47.048;15.390;2023-08-12T10:55:24;2.03;;;1.92;;
12758;SDS011;20944;47.048;15.390;2023-08-12T10:57:53;1.23;;;1.23;;
12758;SDS011;20944;47.048;15.390;2023-08-12T11:00:23;3.60;;;1.95;;
12758;SDS011;20944;47.048;15.390;2023-08-12T11:02:53;2.00;;;1.90;;
12758;SDS011;20944;47.048;15.390;2023-08-12T11:05:23;2.53;;;1.77;;
12758;SDS011;20944;47.048;15.390;2023-08-12T11:07:55;3.50;;;2.15;;
12758;SDS011;20944;47.048;15.390;2023-08-12T11:10:26;1.48;;;1.48;;
12758;SDS011;20944;47.048;15.390;2023-08-12T11:12:59;1.65;;;1.55;;
12758;SDS011;20944;47.048;15.390;2023-08-12T11:15:29;2.15;;;2.00;;
12758;SDS011;20944;47.048;15.390;2023-08-12T11:18:01;1.63;;;1.52;;
12758;SDS011;20944;47.048;15.390;2023-08-12T11:20:31;3.03;;;1.55;;
12758;SDS011;20944;47.048;15.390;2023-08-12T11:23:00;1.80;;;1.30;;
12758;SDS011;20944;47.048;15.390;2023-08-12T11:25:30;1.60;;;1.52;;
12758;SDS011;20944;47.048;15.390;2023-08-12T11:27:59;1.70;;;1.30;;
12758;SDS011;20944;47.048;15.390;2023-08-12T11:30:28;2.25;;;1.80;;
12758;SDS011;20944;47.048;15.390;2023-08-12T11:32:58;1.80;;;1.70;;
12758;SDS011;20944;47.048;15.390;2023-08-12T11:35:29;2.85;;;1.60;;
12758;SDS011;20944;47.048;15.390;2023-08-12T11:37:58;1.88;;;1.77;;
12758;SDS011;20944;47.048;15.390;2023-08-12T11:40:27;2.15;;;2.05;;
12758;SDS011;20944;47.048;15.390;2023-08-12T11:42:57;1.90;;;1.80;;
12758;SDS011;20944;47.048;15.390;2023-08-12T11:45:25;2.20;;;1.58;;
12758;SDS011;20944;47.048;15.390;2023-08-12T11:47:55;1.60;;;1.50;;
12758;SDS011;20944;47.048;15.390;2023-08-12T11:50:25;1.63;;;1.50;;
12758;SDS011;20944;47.048;15.390;2023-08-12T11:52:55;1.95;;;1.80;;
12758;SDS011;20944;47.048;15.390;2023-08-12T11:55:25;1.50;;;1.40;;
12758;SDS011;20944;47.048;15.390;2023-08-12T11:57:53;1.92;;;1.70;;
12758;SDS011;20944;47.048;15.390;2023-08-12T12:00:23;1.48;;;1.38;;
12758;SDS011;20944;47.048;15.390;2023-08-12T12:02:53;1.50;;;1.50;;
12758;SDS011;20944;47.048;15.390;2023-08-12T12:05:23;1.45;;;1.35;;
12758;SDS011;20944;47.048;15.390;2023-08-12T12:07:54;1.50;;;1.40;;
12758;SDS011;20944;47.048;15.390;2023-08-12T12:10:26;1.20;;;1.20;;
12758;SDS011;20944;47.048;15.390;2023-08-12T12:13:00;1.55;;;1.45;;
12758;SDS011;20944;47.048;15.390;2023-08-12T12:15:30;0.98;;;0.98;;
12758;SDS011;20944;47.048;15.390;2023-08-12T12:17:59;1.40;;;1.30;;
12758;SDS011;20944;47.048;15.390;2023-08-12T12:20:27;2.03;;;1.63;;
12758;SDS011;20944;47.048;15.390;2023-08-12T12:22:56;1.83;;;1.77;;
12758;SDS011;20944;47.048;15.390;2023-08-12T12:25:24;1.65;;;1.55;;
12758;SDS011;20944;47.048;15.390;2023-08-12T12:27:52;1.85;;;1.33;;
12758;SDS011;20944;47.048;15.390;2023-08-12T12:30:21;2.40;;;1.60;;
12758;SDS011;20944;47.048;15.390;2023-08-12T12:32:50;1.63;;;1.52;;
12758;SDS011;20944;47.048;15.390;2023-08-12T12:35:19;1.60;;;1.50;;
12758;SDS011;20944;47.048;15.390;2023-08-12T12:37:47;1.65;;;1.40;;
12758;SDS011;20944;47.048;15.390;2023-08-12T12:40:15;3.70;;;1.40;;
12758;SDS011;20944;47.048;15.390;2023-08-12T12:42:43;1.50;;;1.40;;
12758;SDS011;20944;47.048;15.390;2023-08-12T12:45:12;1.20;;;1.20;;
12758;SDS011;20944;47.048;15.390;2023-08-12T12:47:40;1.50;;;1.40;;
12758;SDS011;20944;47.048;15.390;2023-08-12T12:50:10;1.70;;;1.60;;
12758;SDS011;20944;47.048;15.390;2023-08-12T12:52:38;1.60;;;1.50;;
12758;SDS011;20944;47.048;15.390;2023-08-12T12:55:09;1.48;;;1.40;;
12758;SDS011;20944;47.048;15.390;2023-08-12T12:57:38;1.33;;;1.23;;
12758;SDS011;20944;47.048;15.390;2023-08-12T13:00:06;1.00;;;1.00;;
12758;SDS011;20944;47.048;15.390;2023-08-12T13:02:38;1.48;;;1.30;;
12758;SDS011;20944;47.048;15.390;2023-08-12T13:05:07;1.10;;;1.10;;
12758;SDS011;20944;47.048;15.390;2023-08-12T13:07:37;0.98;;;0.98;;
12758;SDS011;20944;47.048;15.390;2023-08-12T13:10:06;2.40;;;1.20;;
12758;SDS011;20944;47.048;15.390;2023-08-12T13:12:35;1.40;;;1.30;;
12758;SDS011;20944;47.048;15.390;2023-08-12T13:15:03;1.40;;;1.40;;
12758;SDS011;20944;47.048;15.390;2023-08-12T13:17:33;2.55;;;1.55;;
12758;SDS011;20944;47.048;15.390;2023-08-12T13:20:02;1.73;;;1.60;;
12758;SDS011;20944;47.048;15.390;2023-08-12T13:22:31;1.00;;;1.00;;
12758;SDS011;20944;47.048;15.390;2023-08-12T13:25:01;1.25;;;1.20;;
12758;SDS011;20944;47.048;15.390;2023-08-12T13:27:30;1.30;;;1.20;;
12758;SDS011;20944;47.048;15.390;2023-08-12T13:30:04;1.10;;;1.10;;
12758;SDS011;20944;47.048;15.390;2023-08-12T13:32:34;1.27;;;1.25;;
12758;SDS011;20944;47.048;15.390;2023-08-12T13:35:02;1.35;;;1.25;;
12758;SDS011;20944;47.048;15.390;2023-08-12T13:37:32;1.17;;;1.15;;
12758;SDS011;20944;47.048;15.390;2023-08-12T13:40:01;1.20;;;1.20;;
12758;SDS011;20944;47.048;15.390;2023-08-12T13:42:30;1.00;;;1.00;;
12758;SDS011;20944;47.048;15.390;2023-08-12T13:44:58;1.23;;;1.13;;
12758;SDS011;20944;47.048;15.390;2023-08-12T13:47:27;0.90;;;0.90;;
12758;SDS011;20944;47.048;15.390;2023-08-12T13:49:55;1.35;;;1.25;;
12758;SDS011;20944;47.048;15.390;2023-08-12T13:52:23;1.30;;;1.30;;
12758;SDS011;20944;47.048;15.390;2023-08-12T13:54:51;3.03;;;1.50;;
12758;SDS011;20944;47.048;15.390;2023-08-12T13:57:21;1.65;;;1.55;;
12758;SDS011;20944;47.048;15.390;2023-08-12T13:59:50;1.30;;;1.27;;
12758;SDS011;20944;47.048;15.390;2023-08-12T14:02:18;1.15;;;1.15;;
12758;SDS011;20944;47.048;15.390;2023-08-12T14:04:47;1.50;;;1.40;;
12758;SDS011;20944;47.048;15.390;2023-08-12T14:07:15;1.00;;;1.00;;
12758;SDS011;20944;47.048;15.390;2023-08-12T14:09:47;1.65;;;1.10;;
12758;SDS011;20944;47.048;15.390;2023-08-12T14:12:15;1.20;;;1.20;;
12758;SDS011;20944;47.048;15.390;2023-08-12T14:14:44;1.30;;;1.20;;
12758;SDS011;20944;47.048;15.390;2023-08-12T14:17:13;3.80;;;1.40;;
12758;SDS011;20944;47.048;15.390;2023-08-12T14:19:43;1.35;;;1.30;;
12758;SDS011;20944;47.048;15.390;2023-08-12T14:22:12;1.40;;;1.30;;
12758;SDS011;20944;47.048;15.390;2023-08-12T14:24:40;0.95;;;0.95;;
12758;SDS011;20944;47.048;15.390;2023-08-12T14:27:10;0.95;;;0.95;;
12758;SDS011;20944;47.048;15.390;2023-08-12T14:29:39;1.17;;;1.15;;
12758;SDS011;20944;47.048;15.390;2023-08-12T14:32:08;1.25;;;1.23;;
12758;SDS011;20944;47.048;15.390;2023-08-12T14:34:36;1.02;;;1.02;;
12758;SDS011;20944;47.048;15.390;2023-08-12T14:37:05;1.27;;;1.27;;
12758;SDS011;20944;47.048;15.390;2023-08-12T14:39:34;1.25;;;1.13;;
12758;SDS011;20944;47.048;15.390;2023-08-12T14:42:03;1.17;;;1.08;;
12758;SDS011;20944;47.048;15.390;2023-08-12T14:44:31;1.10;;;1.00;;